Wellborn, Texas
Current Conditions -  °F | °C
As of 11:53 PM on Wednesday 17 Dec 2014 (Local Time) from KCLL Reporting Station
Overcast Overcast  
Wind Chill: 52°   Ceiling: 900
Heat Index: 52°   Visibility: 10mi
Dew Point: 49°   Wind: 7mph
Humidity: 89%   Direction: 20°NNE
Pressure: 30.12"   Gusts: NA
Location:  30.54°N, 96.3°W
Report Text: KCLL 180553Z 02006KT 10SM OVC009 11/09 A3012 RMK AO2 SLP196 T01110094 10128 20111 401330067 53003
Loading
Personal Weather Stations






























Interactive Weather Map New forecast layout! Learn more

10-Day Weather Forecast

Advertisements
Track Severe Weather on mobile